Time;durP1;ratioP1;P1;durP2;ratioP2;P2;SDS_P1;SDS_P2;PMS_P1;PMS_P2;Temp;Humidity;BMP_temperature;BMP_pressure;BME280_temperature;BME280_humidity;BME280_pressure;Samples;Min_cycle;Max_cycle;Signal;HPM_P1;HPM_P2
2021/06/17 00:00:27;;;;;;;4.10;3.40;;;;;;;16.34;100.00;95607.34;1040031;28;20650;-69
2021/06/17 00:01:03;;;;;;;6.60;3.60;;;;;;;16.36;100.00;95605.16;1035611;28;20363;-68
2021/06/17 00:01:33;;;;;;;6.75;3.63;;;;;;;16.31;100.00;95603.41;1035700;28;20030;-69
2021/06/17 00:02:05;;;;;;;8.40;3.85;;;;;;;16.37;100.00;95612.03;1036007;28;20732;-69
2021/06/17 00:02:36;;;;;;;3.97;3.58;;;;;;;16.39;100.00;95607.19;1027418;28;20803;-69
2021/06/17 00:03:06;;;;;;;6.97;3.60;;;;;;;16.41;100.00;95612.97;1026264;28;20011;-69
2021/06/17 00:03:40;;;;;;;4.25;3.67;;;;;;;16.41;100.00;95612.97;1031090;28;20399;-69
2021/06/17 00:04:10;;;;;;;6.43;3.40;;;;;;;16.38;100.00;95608.28;1031592;28;20604;-69
2021/06/17 00:04:41;;;;;;;4.00;3.63;;;;;;;16.34;100.00;95602.03;1035975;28;20045;-67
2021/06/17 00:05:13;;;;;;;4.05;3.65;;;;;;;16.42;100.00;95603.94;1031319;28;20050;-68
2021/06/17 00:05:45;;;;;;;8.10;3.97;;;;;;;16.44;100.00;95607.84;1023639;28;20411;-69
2021/06/17 00:06:16;;;;;;;4.95;3.85;;;;;;;16.35;100.00;95598.28;1029369;28;20427;-69
2021/06/17 00:06:46;;;;;;;6.13;4.10;;;;;;;16.44;100.00;95607.06;1031029;28;20010;-68
2021/06/17 00:07:17;;;;;;;5.45;4.05;;;;;;;16.43;100.00;95605.50;1032394;28;20026;-69
2021/06/17 00:07:47;;;;;;;5.97;3.55;;;;;;;16.37;100.00;95598.78;1039426;28;20030;-69
2021/06/17 00:08:18;;;;;;;6.03;4.07;;;;;;;16.45;100.00;95611.28;1031427;28;20026;-68
2021/06/17 00:08:48;;;;;;;6.57;3.60;;;;;;;16.45;100.00;95609.41;1039800;28;20100;-69
2021/06/17 00:09:19;;;;;;;4.68;3.35;;;;;;;16.46;100.00;95610.19;1035577;28;20029;-70
2021/06/17 00:09:49;;;;;;;4.78;3.35;;;;;;;16.45;100.00;95608.63;1030771;28;20034;-69
2021/06/17 00:10:45;;;;;;;6.63;3.70;;;;;;;16.40;100.00;95606.91;1031523;28;20041;-68
2021/06/17 00:11:15;;;;;;;4.22;3.63;;;;;;;16.41;100.00;95607.69;1035639;28;20038;-68
2021/06/17 00:11:45;;;;;;;8.32;3.88;;;;;;;16.43;100.00;95610.78;1036370;28;20018;-69
2021/06/17 00:12:16;;;;;;;7.22;3.72;;;;;;;16.43;100.00;95608.16;1031456;28;20027;-69
2021/06/17 00:12:46;;;;;;;6.05;3.72;;;;;;;16.40;100.00;95601.59;1030439;28;20033;-69
2021/06/17 00:13:19;;;;;;;7.97;4.07;;;;;;;16.39;100.00;95609.84;1029622;28;20018;-68
2021/06/17 00:13:51;;;;;;;5.55;4.00;;;;;;;16.38;100.00;95606.41;1031660;28;20665;-69
2021/06/17 00:14:21;;;;;;;9.02;3.88;;;;;;;16.36;100.00;95615.75;1032146;28;20090;-69
2021/06/17 00:14:54;;;;;;;4.55;3.53;;;;;;;16.37;100.00;95609.38;1035276;28;20026;-69
2021/06/17 00:15:25;;;;;;;6.97;3.40;;;;;;;16.36;100.00;95605.16;1035924;28;20026;-69
2021/06/17 00:15:58;;;;;;;6.00;3.75;;;;;;;16.36;100.00;95605.91;1031624;28;20033;-69
2021/06/17 00:16:28;;;;;;;5.72;3.95;;;;;;;16.32;100.00;95604.19;1026524;28;20029;-69
2021/06/17 00:16:59;;;;;;;5.32;4.20;;;;;;;16.31;100.00;95602.63;1026840;28;20026;-68
2021/06/17 00:17:30;;;;;;;9.13;3.95;;;;;;;16.38;100.00;95605.63;1027316;28;20125;-69
2021/06/17 00:18:00;;;;;;;8.57;4.32;;;;;;;16.38;100.00;95608.28;1026922;28;20070;-68
2021/06/17 00:18:34;;;;;;;8.25;3.88;;;;;;;16.35;100.00;95606.25;1031463;28;20522;-69
2021/06/17 00:19:04;;;;;;;5.47;4.30;;;;;;;16.35;100.00;95600.94;1031327;28;20218;-71
2021/06/17 00:19:37;;;;;;;5.47;3.80;;;;;;;16.35;100.00;95603.59;1031943;28;20089;-69
2021/06/17 00:20:08;;;;;;;5.60;3.70;;;;;;;16.35;100.00;95608.88;1031576;28;20026;-68
2021/06/17 00:20:39;;;;;;;5.05;3.55;;;;;;;16.33;100.00;95609.19;1027429;28;20502;-68
2021/06/17 00:21:09;;;;;;;4.70;3.80;;;;;;;16.34;100.00;95607.34;1023957;28;20027;-69
2021/06/17 00:21:40;;;;;;;5.85;3.65;;;;;;;16.32;100.00;95604.19;1025329;28;20035;-68
2021/06/17 00:22:10;;;;;;;5.53;3.75;;;;;;;16.32;100.00;95607.63;1023002;28;20497;-68
2021/06/17 00:22:41;;;;;;;12.65;3.97;;;;;;;16.32;100.00;95606.84;1023414;28;20086;-68
2021/06/17 00:23:11;;;;;;;5.10;3.75;;;;;;;16.29;100.00;95610.09;1026423;28;20045;-69
2021/06/17 00:23:42;;;;;;;6.22;3.88;;;;;;;16.22;100.00;95595.41;1027534;28;21891;-69
2021/06/17 00:24:12;;;;;;;5.43;3.60;;;;;;;16.27;100.00;95603.22;1019218;29;20034;-69
2021/06/17 00:24:43;;;;;;;4.88;3.42;;;;;;;16.25;100.00;95604.63;1019552;29;20050;-68
2021/06/17 00:25:14;;;;;;;5.63;3.90;;;;;;;16.19;100.00;95606.59;1022862;28;20066;-69
2021/06/17 00:25:45;;;;;;;4.22;3.67;;;;;;;16.23;100.00;95604.94;1027571;28;20495;-68
2021/06/17 00:26:15;;;;;;;8.40;4.13;;;;;;;16.22;100.00;95610.50;1022329;29;20065;-68
2021/06/17 00:26:46;;;;;;;6.70;3.90;;;;;;;16.18;100.00;95610.34;1028979;28;20054;-68
2021/06/17 00:27:16;;;;;;;4.72;3.47;;;;;;;16.21;100.00;95615.03;1035464;28;20046;-68
2021/06/17 00:27:46;;;;;;;6.63;4.07;;;;;;;16.17;100.00;95614.06;1031581;28;20034;-69
2021/06/17 00:28:17;;;;;;;5.43;4.10;;;;;;;16.17;100.00;95614.06;1027372;28;20038;-69
2021/06/17 00:28:47;;;;;;;8.38;4.00;;;;;;;16.10;100.00;95611.06;1030667;28;20085;-68
2021/06/17 00:29:18;;;;;;;7.85;4.05;;;;;;;16.13;100.00;95613.13;1031784;28;20444;-69
2021/06/17 00:29:51;;;;;;;6.78;4.03;;;;;;;16.06;100.00;95602.13;1035452;28;20056;-69
2021/06/17 00:30:22;;;;;;;6.28;3.70;;;;;;;16.11;100.00;95607.31;1032041;28;20042;-68
2021/06/17 00:30:53;;;;;;;4.90;3.95;;;;;;;16.14;100.00;95609.38;1031390;28;20069;-68
2021/06/17 00:31:23;;;;;;;5.32;3.88;;;;;;;16.07;100.00;95589.72;1031327;28;20030;-69
2021/06/17 00:31:54;;;;;;;6.50;3.75;;;;;;;16.17;100.00;95605.34;1032593;28;20487;-68
2021/06/17 00:32:24;;;;;;;5.50;4.05;;;;;;;16.15;100.00;95605.63;1035301;28;20053;-69
2021/06/17 00:32:55;;;;;;;5.72;3.80;;;;;;;16.09;100.00;95598.88;1039036;28;20025;-68
2021/06/17 00:33:26;;;;;;;6.03;3.70;;;;;;;16.14;100.00;95609.38;1031492;28;20364;-69
2021/06/17 00:33:56;;;;;;;3.95;3.53;;;;;;;16.16;100.00;95607.22;1030758;28;20407;-65
2021/06/17 00:34:27;;;;;;;5.22;3.72;;;;;;;16.17;100.00;95598.19;1031285;28;20054;-69
2021/06/17 00:34:57;;;;;;;7.00;4.10;;;;;;;16.17;100.00;95602.69;1027637;28;20046;-68
2021/06/17 00:35:30;;;;;;;7.93;3.70;;;;;;;16.17;100.00;95611.44;1027168;28;20075;-69
2021/06/17 00:36:01;;;;;;;4.50;3.92;;;;;;;16.16;100.00;95601.13;1032077;28;20049;-69
2021/06/17 00:36:31;;;;;;;7.13;3.75;;;;;;;16.15;100.00;95600.34;1034419;28;20018;-69
2021/06/17 00:37:02;;;;;;;7.53;4.25;;;;;;;16.15;100.00;95605.63;1032026;28;20046;-68
2021/06/17 00:37:32;;;;;;;8.60;4.25;;;;;;;16.16;100.00;95606.41;1038995;28;20047;-68
2021/06/17 00:38:04;;;;;;;5.05;3.83;;;;;;;16.16;100.00;95603.75;1035211;28;20025;-68
2021/06/17 00:38:35;;;;;;;6.10;3.85;;;;;;;16.13;100.00;95596.41;1035937;28;20076;-70
2021/06/17 00:39:06;;;;;;;7.50;3.88;;;;;;;16.13;100.00;95597.22;1034782;28;20479;-68
2021/06/17 00:39:37;;;;;;;5.90;3.85;;;;;;;16.16;100.00;95601.13;1035632;28;20064;-68
2021/06/17 00:40:10;;;;;;;5.40;4.10;;;;;;;16.14;100.00;95604.06;1035486;28;20142;-69
2021/06/17 00:40:43;;;;;;;4.40;3.83;;;;;;;16.06;100.00;95601.34;1030973;28;20029;-68
2021/06/17 00:41:14;;;;;;;4.85;3.80;;;;;;;16.12;100.00;95608.88;1027407;28;20295;-69
2021/06/17 00:41:44;;;;;;;5.05;3.70;;;;;;;16.11;100.00;95606.53;1028096;28;20033;-70
2021/06/17 00:42:15;;;;;;;6.30;4.03;;;;;;;16.07;100.00;95603.72;1031831;28;20093;-68
2021/06/17 00:42:47;;;;;;;6.88;3.97;;;;;;;16.02;100.00;95606.47;1030444;28;20659;-68
2021/06/17 00:43:17;;;;;;;7.80;4.30;;;;;;;16.02;100.00;95612.53;1030663;28;20062;-69
2021/06/17 00:43:47;;;;;;;8.00;3.90;;;;;;;16.00;100.00;95601.50;1034022;28;20026;-68
2021/06/17 00:44:18;;;;;;;8.40;3.97;;;;;;;16.01;100.00;95604.91;1032087;28;20026;-68
2021/06/17 00:44:48;;;;;;;5.43;4.15;;;;;;;16.00;100.00;95608.66;1035088;28;20117;-69
2021/06/17 00:45:22;;;;;;;7.07;4.03;;;;;;;15.96;100.00;95592.59;1031229;28;20030;-68
2021/06/17 00:45:53;;;;;;;7.20;4.10;;;;;;;15.95;100.00;95606.09;1031159;28;20026;-69
2021/06/17 00:46:24;;;;;;;7.38;4.40;;;;;;;15.88;100.00;95597.81;1031631;28;20133;-69
2021/06/17 00:46:54;;;;;;;6.28;3.70;;;;;;;15.89;100.00;95596.72;1032222;28;20039;-69
2021/06/17 00:47:25;;;;;;;5.97;3.95;;;;;;;15.94;100.00;95600.03;1029904;28;20035;-68
2021/06/17 00:47:56;;;;;;;5.43;3.50;;;;;;;15.87;100.00;95589.09;1031713;28;20045;-68
2021/06/17 00:48:26;;;;;;;6.75;4.00;;;;;;;15.88;100.00;95600.44;1027756;28;20466;-68
2021/06/17 00:48:57;;;;;;;5.25;3.90;;;;;;;15.88;100.00;95597.81;1031456;28;20113;-68
2021/06/17 00:49:27;;;;;;;7.43;3.55;;;;;;;15.85;100.00;95596.53;1039525;28;20429;-69
2021/06/17 00:49:58;;;;;;;7.32;4.10;;;;;;;15.85;100.00;95596.53;1039657;28;20026;-68
2021/06/17 00:50:33;;;;;;;8.25;4.40;;;;;;;15.87;100.00;95599.69;1043821;28;20432;-68
2021/06/17 00:51:04;;;;;;;7.80;3.97;;;;;;;15.81;100.00;95589.50;1035658;28;20072;-70
2021/06/17 00:51:34;;;;;;;4.50;3.75;;;;;;;15.89;100.00;95591.41;1032078;28;20022;-68
2021/06/17 00:52:06;;;;;;;6.60;4.22;;;;;;;15.88;100.00;95592.50;1035383;28;20022;-67
2021/06/17 00:52:37;;;;;;;8.30;3.88;;;;;;;15.84;100.00;95583.63;1032471;28;20019;-68
2021/06/17 00:53:11;;;;;;;5.70;4.10;;;;;;;15.88;100.00;95590.66;1031144;28;20033;-68
2021/06/17 00:53:41;;;;;;;5.88;3.97;;;;;;;15.86;100.00;95586.72;1035504;28;20030;-69
2021/06/17 00:54:12;;;;;;;8.40;4.28;;;;;;;15.87;100.00;95585.66;1031469;28;20298;-68
2021/06/17 00:54:42;;;;;;;5.60;3.92;;;;;;;15.86;100.00;95592.03;1031274;28;20026;-68
2021/06/17 00:55:13;;;;;;;6.13;4.03;;;;;;;15.79;100.00;95580.00;1026727;28;20042;-69
2021/06/17 00:55:46;;;;;;;8.85;4.00;;;;;;;15.85;100.00;95591.25;1027140;28;20053;-68
2021/06/17 00:56:17;;;;;;;4.13;3.55;;;;;;;15.85;100.00;95590.47;1027673;28;20578;-69
2021/06/17 00:56:47;;;;;;;6.70;4.28;;;;;;;15.81;100.00;95592.16;1031783;28;20026;-68
2021/06/17 00:57:18;;;;;;;5.22;4.13;;;;;;;15.83;100.00;95592.63;1032299;28;20042;-68
2021/06/17 00:57:51;;;;;;;5.28;3.97;;;;;;;15.81;100.00;95585.00;1035080;28;20076;-68
2021/06/17 00:58:21;;;;;;;7.57;4.03;;;;;;;15.74;100.00;95585.41;1035104;28;20036;-68
2021/06/17 00:58:57;;;;;;;7.10;4.00;;;;;;;15.77;100.00;95587.44;1023357;29;20020;-68
2021/06/17 00:59:28;;;;;;;5.05;4.30;;;;;;;15.75;100.00;95592.25;1030157;28;20483;-68
2021/06/17 00:59:58;;;;;;;9.63;4.57;;;;;;;15.73;100.00;95591.78;1027250;28;20015;-69
2021/06/17 01:00:31;;;;;;;10.32;5.07;;;;;;;15.70;100.00;95588.97;1027952;28;20033;-68
2021/06/17 01:01:02;;;;;;;11.63;4.50;;;;;;;15.67;100.00;95595.63;1031227;28;20022;-68
2021/06/17 01:01:32;;;;;;;12.20;4.80;;;;;;;15.64;100.00;95590.88;1032116;28;20117;-68
2021/06/17 01:02:03;;;;;;;9.30;4.00;;;;;;;15.65;100.00;95595.09;1031837;28;20023;-68
2021/06/17 01:02:34;;;;;;;9.55;4.03;;;;;;;15.59;100.00;95592.84;1026721;28;20349;-67
2021/06/17 01:03:04;;;;;;;13.23;4.00;;;;;;;15.54;100.00;95586.59;1026566;28;20031;-69
2021/06/17 01:03:35;;;;;;;13.70;4.60;;;;;;;15.51;100.00;95586.41;1027398;28;20022;-69
2021/06/17 01:04:05;;;;;;;7.50;3.70;;;;;;;15.60;100.00;95595.22;1031246;28;20108;-67
2021/06/17 01:04:36;;;;;;;5.97;3.80;;;;;;;15.60;100.00;95589.94;1031288;28;20033;-68
2021/06/17 01:05:10;;;;;;;7.18;4.07;;;;;;;15.57;100.00;95588.66;1031279;28;20085;-68
2021/06/17 01:05:41;;;;;;;7.22;3.53;;;;;;;15.67;100.00;95598.25;1031339;28;20027;-68
2021/06/17 01:06:11;;;;;;;4.82;3.92;;;;;;;15.72;100.00;95584.13;1024400;28;20031;-68
2021/06/17 01:06:42;;;;;;;5.30;3.97;;;;;;;15.76;100.00;95590.38;1030525;28;20046;-69
2021/06/17 01:07:12;;;;;;;8.50;3.92;;;;;;;15.57;100.00;95561.44;1027365;28;20027;-68
2021/06/17 01:07:48;;;;;;;4.75;3.83;;;;;;;15.76;100.00;95588.53;1025654;28;20438;-68
2021/06/17 01:08:30;;;;;;;8.07;4.82;;;;;;;15.79;100.00;95592.44;1027200;28;20133;-69
2021/06/17 01:09:07;;;;;;;7.45;4.07;;;;;;;15.76;100.00;95588.53;1031473;28;20022;-68
2021/06/17 01:10:04;;;;;;;5.10;3.90;;;;;;;15.70;100.00;95589.72;1025926;28;20491;-68
2021/06/17 01:10:45;;;;;;;5.43;4.25;;;;;;;15.65;100.00;95592.44;1027690;28;20056;-68
2021/06/17 01:11:29;;;;;;;10.32;4.07;;;;;;;15.63;100.00;95593.84;1034000;28;20513;-69
2021/06/17 01:12:14;;;;;;;12.90;4.60;;;;;;;15.57;100.00;95591.28;1031204;28;20061;-68
2021/06/17 01:12:55;;;;;;;20.45;5.38;;;;;;;15.54;100.00;95596.41;1035553;28;20421;-67
2021/06/17 01:13:29;;;;;;;15.15;5.40;;;;;;;15.50;100.00;95590.91;1035141;28;20025;-68
2021/06/17 01:14:26;;;;;;;10.02;4.60;;;;;;;15.43;100.00;95590.53;1039275;28;20505;-67
2021/06/17 01:15:03;;;;;;;11.15;4.55;;;;;;;15.42;100.00;95596.13;1034989;28;20052;-70
2021/06/17 01:15:39;;;;;;;11.88;4.75;;;;;;;15.38;100.00;95593.28;1035298;28;20030;-69
2021/06/17 01:16:30;;;;;;;9.85;3.85;;;;;;;15.36;100.00;95594.66;1022933;29;20023;-69
2021/06/17 01:17:07;;;;;;;8.80;4.05;;;;;;;15.27;100.00;95589.28;1023349;29;20086;-68
2021/06/17 01:17:38;;;;;;;9.88;5.13;;;;;;;15.31;100.00;95598.97;1019249;29;20031;-68
2021/06/17 01:18:11;;;;;;;8.05;4.25;;;;;;;15.27;100.00;95598.00;1025262;28;20023;-68
2021/06/17 01:18:50;;;;;;;7.85;4.15;;;;;;;15.26;100.00;95599.09;1035035;28;20033;-68
2021/06/17 01:19:29;;;;;;;8.05;3.83;;;;;;;15.24;100.00;95598.59;1031312;28;20531;-68
2021/06/17 01:20:13;;;;;;;10.15;4.32;;;;;;;15.22;100.00;95595.44;1029896;28;20053;-68
2021/06/17 01:20:49;;;;;;;6.18;4.18;;;;;;;15.20;100.00;95592.34;1023108;28;20051;-67
2021/06/17 01:21:31;;;;;;;6.57;3.92;;;;;;;15.16;100.00;95591.38;1027403;28;20077;-68
2021/06/17 01:22:52;;;;;;;6.88;4.45;;;;;;;15.14;100.00;95596.16;1027044;28;20027;-70
2021/06/17 01:23:55;;;;;;;6.50;4.57;;;;;;;15.10;100.00;95597.81;1026279;28;20042;-67
2021/06/17 01:24:44;;;;;;;10.65;4.32;;;;;;;15.06;100.00;95596.84;1030766;28;20471;-67
2021/06/17 01:25:32;;;;;;;9.60;4.13;;;;;;;15.03;100.00;95594.78;1032295;28;20046;-68
2021/06/17 01:26:19;;;;;;;6.07;4.05;;;;;;;14.99;100.00;95591.97;1031320;28;20039;-68
2021/06/17 01:27:00;;;;;;;10.10;4.13;;;;;;;14.97;100.00;95586.19;1034494;28;20038;-69
2021/06/17 01:27:37;;;;;;;8.43;4.95;;;;;;;14.97;100.00;95590.69;1030869;28;20061;-69
2021/06/17 01:28:12;;;;;;;7.35;4.70;;;;;;;14.96;100.00;95586.47;1034914;28;20022;-69
2021/06/17 01:28:42;;;;;;;11.02;4.50;;;;;;;14.93;100.00;95587.06;1027309;28;20031;-68
2021/06/17 01:29:15;;;;;;;19.05;5.35;;;;;;;14.89;100.00;95575.50;1026561;28;20024;-67
2021/06/17 01:29:54;;;;;;;10.30;4.60;;;;;;;14.93;100.00;95587.06;1023161;28;20047;-68
2021/06/17 01:30:27;;;;;;;16.75;4.57;;;;;;;14.91;100.00;95589.97;1030982;28;20034;-68
2021/06/17 01:31:02;;;;;;;12.02;4.95;;;;;;;14.90;100.00;95582.38;1035091;28;20049;-68
2021/06/17 01:31:33;;;;;;;10.90;4.75;;;;;;;14.89;100.00;95592.16;1027747;28;20027;-68
2021/06/17 01:32:04;;;;;;;10.82;5.18;;;;;;;14.85;100.00;95583.22;1024453;28;20038;-68
2021/06/17 01:32:36;;;;;;;12.50;4.88;;;;;;;14.88;100.00;95584.50;1024708;28;20106;-68
2021/06/17 01:33:06;;;;;;;14.38;4.57;;;;;;;14.87;100.00;95588.22;1023237;28;20535;-68
2021/06/17 01:33:39;;;;;;;9.25;4.50;;;;;;;14.83;100.00;95580.13;1030929;28;20027;-68
2021/06/17 01:34:09;;;;;;;7.47;4.28;;;;;;;14.81;100.00;95585.69;1027128;28;20503;-68
2021/06/17 01:34:40;;;;;;;13.38;5.07;;;;;;;14.76;100.00;95571.78;1031121;28;20037;-68
2021/06/17 01:35:10;;;;;;;11.57;4.13;;;;;;;14.80;100.00;95578.84;1030103;28;20031;-68
2021/06/17 01:35:46;;;;;;;10.57;4.65;;;;;;;14.80;100.00;95583.34;1031255;28;20060;-68
2021/06/17 01:36:20;;;;;;;9.30;4.43;;;;;;;14.80;100.00;95578.84;1036233;28;20091;-67
2021/06/17 01:37:05;;;;;;;8.48;4.68;;;;;;;14.76;100.00;95577.84;1034910;28;20017;-67
2021/06/17 01:37:35;;;;;;;7.60;4.25;;;;;;;14.78;100.00;95580.19;1027322;28;20476;-68
2021/06/17 01:38:06;;;;;;;10.13;4.53;;;;;;;14.73;100.00;95578.44;1027111;28;20023;-68
2021/06/17 01:38:36;;;;;;;5.30;4.13;;;;;;;14.78;100.00;95582.84;1028521;28;20026;-68
2021/06/17 01:39:08;;;;;;;6.93;4.50;;;;;;;14.75;100.00;95580.78;1023049;29;20468;-68
2021/06/17 01:39:39;;;;;;;7.07;4.25;;;;;;;14.72;100.00;95586.63;1023175;29;20023;-68
2021/06/17 01:40:11;;;;;;;7.22;4.50;;;;;;;14.71;100.00;95577.94;1032500;28;20042;-68
2021/06/17 01:40:41;;;;;;;8.13;4.20;;;;;;;14.71;100.00;95575.28;1027071;28;20690;-67
2021/06/17 01:41:12;;;;;;;10.80;5.15;;;;;;;14.72;100.00;95581.34;1022863;29;20047;-67
2021/06/17 01:41:44;;;;;;;10.18;4.45;;;;;;;14.66;100.00;95572.75;1027273;28;20034;-68
2021/06/17 01:42:15;;;;;;;5.82;3.90;;;;;;;14.66;100.00;95578.03;1026726;28;20054;-68
2021/06/17 01:42:45;;;;;;;17.60;5.25;;;;;;;14.66;100.00;95578.03;1023098;29;20440;-67
2021/06/17 01:43:16;;;;;;;12.73;5.43;;;;;;;14.66;100.00;95572.75;1026273;28;20089;-68
2021/06/17 01:43:47;;;;;;;19.10;5.50;;;;;;;14.59;100.00;95569.72;1027316;28;20114;-68
2021/06/17 01:44:19;;;;;;;14.02;5.55;;;;;;;14.64;100.00;95576.75;1031525;28;20411;-68
2021/06/17 01:44:49;;;;;;;13.57;5.25;;;;;;;14.63;100.00;95578.63;1022631;28;20046;-67
2021/06/17 01:45:21;;;;;;;11.30;4.60;;;;;;;14.60;100.00;95579.22;1026545;28;20043;-67
2021/06/17 01:45:51;;;;;;;27.38;5.88;;;;;;;14.55;100.00;95566.88;1022787;28;20114;-68
2021/06/17 01:46:22;;;;;;;9.35;4.85;;;;;;;14.58;100.00;95570.78;1027834;28;20034;-68
2021/06/17 01:46:52;;;;;;;5.07;4.47;;;;;;;14.56;100.00;95572.94;1026616;28;20479;-70
2021/06/17 01:47:24;;;;;;;12.32;4.85;;;;;;;14.61;100.00;95580.75;1022937;29;20341;-67
2021/06/17 01:47:55;;;;;;;12.40;4.82;;;;;;;14.61;100.00;95576.25;1022972;29;20038;-68
2021/06/17 01:48:26;;;;;;;16.70;5.03;;;;;;;14.54;100.00;95575.09;1023168;29;20291;-68
2021/06/17 01:48:56;;;;;;;7.25;4.50;;;;;;;14.57;100.00;95580.56;1026624;28;20025;-68
2021/06/17 01:49:27;;;;;;;7.50;4.70;;;;;;;14.51;100.00;95571.16;1026783;28;20018;-68
2021/06/17 01:49:57;;;;;;;22.50;5.85;;;;;;;14.57;100.00;95577.16;1028384;28;20082;-70
2021/06/17 01:50:31;;;;;;;26.33;5.93;;;;;;;14.57;100.00;95577.16;1029068;28;20018;-68
2021/06/17 01:51:01;;;;;;;23.27;6.75;;;;;;;14.56;100.00;95572.94;1031295;28;20562;-68
2021/06/17 01:51:32;;;;;;;19.67;5.65;;;;;;;14.54;100.00;95580.38;1031477;28;20045;-68
2021/06/17 01:52:04;;;;;;;23.88;5.40;;;;;;;14.55;100.00;95576.66;1027416;28;20066;-67
2021/06/17 01:52:34;;;;;;;14.55;5.00;;;;;;;14.53;100.00;95571.66;1028508;28;20515;-68
2021/06/17 01:53:05;;;;;;;10.48;4.53;;;;;;;14.47;100.00;95562.22;1030476;28;20018;-67
2021/06/17 01:53:36;;;;;;;10.68;5.53;;;;;;;14.53;100.00;95573.53;1027275;28;20631;-69
2021/06/17 01:54:06;;;;;;;21.58;5.28;;;;;;;14.53;100.00;95571.66;1026633;28;20018;-68
2021/06/17 01:54:39;;;;;;;12.85;5.00;;;;;;;14.49;100.00;95569.88;1035061;28;20525;-68
2021/06/17 01:55:13;;;;;;;10.75;5.18;;;;;;;14.51;100.00;95579.09;1035143;28;20041;-69
2021/06/17 01:55:47;;;;;;;7.75;4.60;;;;;;;14.49;100.00;95568.03;1029775;28;20347;-69
2021/06/17 01:56:19;;;;;;;10.50;5.15;;;;;;;14.46;100.00;95562.53;1027140;28;20077;-68
2021/06/17 01:56:49;;;;;;;11.30;4.75;;;;;;;14.48;100.00;95569.06;1023024;29;20019;-68
2021/06/17 01:57:20;;;;;;;11.63;4.90;;;;;;;14.52;100.00;95574.59;1026876;28;20019;-70
2021/06/17 01:57:50;;;;;;;9.90;4.80;;;;;;;14.50;100.00;95580.16;1026809;28;20086;-69
2021/06/17 01:58:21;;;;;;;6.40;4.55;;;;;;;14.49;100.00;95577.81;1031129;28;20057;-68
2021/06/17 01:58:53;;;;;;;7.75;4.60;;;;;;;14.44;100.00;95565.47;1031319;28;20033;-69
2021/06/17 01:59:24;;;;;;;5.70;4.25;;;;;;;14.46;100.00;95565.19;1035321;28;20033;-69
2021/06/17 01:59:55;;;;;;;9.35;4.60;;;;;;;14.42;100.00;95562.34;1026921;28;20424;-68
2021/06/17 02:00:25;;;;;;;6.30;4.28;;;;;;;14.39;100.00;95568.97;1027011;28;20014;-67
2021/06/17 02:00:55;;;;;;;9.73;4.28;;;;;;;14.44;100.00;95573.38;1026707;28;20490;-69
2021/06/17 02:01:30;;;;;;;7.90;4.35;;;;;;;14.41;100.00;95566.03;1027022;28;20026;-69
2021/06/17 02:02:01;;;;;;;10.45;4.97;;;;;;;14.43;100.00;95569.19;1031034;28;20476;-68
2021/06/17 02:02:31;;;;;;;7.63;4.82;;;;;;;14.37;100.00;95557.13;1038316;28;20076;-69
2021/06/17 02:03:03;;;;;;;9.18;4.90;;;;;;;14.35;100.00;95557.44;1039383;28;20750;-68
2021/06/17 02:03:34;;;;;;;7.55;4.80;;;;;;;14.42;100.00;95569.44;1034938;28;20057;-69
2021/06/17 02:04:04;;;;;;;11.95;4.90;;;;;;;14.39;100.00;95566.34;1026035;28;20324;-68
2021/06/17 02:04:35;;;;;;;8.88;4.88;;;;;;;14.37;100.00;95570.34;1030975;28;20549;-69
2021/06/17 02:05:07;;;;;;;14.63;5.25;;;;;;;14.31;100.00;95559.06;1030974;28;20368;-68
2021/06/17 02:05:40;;;;;;;13.40;5.00;;;;;;;14.35;100.00;95565.34;1023694;28;20019;-68
2021/06/17 02:06:14;;;;;;;9.75;4.45;;;;;;;14.34;100.00;95566.41;1031459;28;20007;-69
2021/06/17 02:06:44;;;;;;;10.38;4.72;;;;;;;14.31;100.00;95564.34;1026879;28;20507;-68
2021/06/17 02:07:15;;;;;;;13.27;4.65;;;;;;;14.33;100.00;95570.13;1027099;28;20269;-68
2021/06/17 02:07:46;;;;;;;13.15;6.05;;;;;;;14.26;100.00;95553.88;1026768;28;20018;-68
2021/06/17 02:08:17;;;;;;;7.22;4.40;;;;;;;14.31;100.00;95563.56;1030821;28;20586;-69
2021/06/17 02:08:52;;;;;;;10.52;4.90;;;;;;;14.27;100.00;95558.09;1031104;28;20027;-68
2021/06/17 02:09:23;;;;;;;5.70;4.65;;;;;;;14.31;100.00;95568.84;1031113;28;20414;-68
2021/06/17 02:09:54;;;;;;;10.15;4.70;;;;;;;14.31;100.00;95561.72;1022944;29;20015;-68
2021/06/17 02:10:24;;;;;;;5.97;4.55;;;;;;;14.26;100.00;95561.81;1026810;28;20027;-69
2021/06/17 02:10:55;;;;;;;7.45;4.45;;;;;;;14.27;100.00;95563.38;1025083;28;20022;-68
2021/06/17 02:11:27;;;;;;;9.05;4.57;;;;;;;14.25;100.00;95554.97;1022793;29;20023;-68
2021/06/17 02:11:58;;;;;;;7.93;5.10;;;;;;;14.27;100.00;95563.38;1026392;28;20015;-68
2021/06/17 02:12:28;;;;;;;8.60;4.88;;;;;;;14.25;100.00;95557.63;1026429;28;20265;-70
2021/06/17 02:12:58;;;;;;;10.75;5.60;;;;;;;14.22;100.00;95560.84;1029135;28;20515;-69
2021/06/17 02:13:29;;;;;;;10.65;5.00;;;;;;;14.25;100.00;95562.91;1030735;28;20518;-68
2021/06/17 02:14:00;;;;;;;10.15;5.18;;;;;;;14.25;100.00;95554.16;1026887;28;20038;-68
2021/06/17 02:14:30;;;;;;;8.30;4.85;;;;;;;14.22;100.00;95558.19;1026697;28;20427;-69
2021/06/17 02:15:00;;;;;;;5.00;4.50;;;;;;;14.17;100.00;95552.97;1019871;29;20031;-68
2021/06/17 02:15:31;;;;;;;10.23;4.95;;;;;;;14.17;100.00;95554.84;1023583;28;20039;-69
2021/06/17 02:16:02;;;;;;;5.95;4.70;;;;;;;14.16;100.00;95548.78;1026904;28;20128;-69
2021/06/17 02:16:32;;;;;;;9.73;4.70;;;;;;;14.18;100.00;95562.47;1030375;28;20076;-69
2021/06/17 02:17:05;;;;;;;9.85;4.90;;;;;;;14.18;100.00;95561.69;1027020;28;20078;-69
2021/06/17 02:17:36;;;;;;;6.88;4.55;;;;;;;14.15;100.00;95563.84;1022221;29;20031;-68
2021/06/17 02:18:07;;;;;;;6.68;4.25;;;;;;;14.18;100.00;95562.47;1026429;28;20019;-69
2021/06/17 02:18:40;;;;;;;7.97;4.57;;;;;;;14.17;100.00;95555.63;1026992;28;20090;-67
2021/06/17 02:19:11;;;;;;;11.32;4.78;;;;;;;14.17;100.00;95557.47;1030601;28;20541;-69
2021/06/17 02:19:42;;;;;;;7.50;4.82;;;;;;;14.19;100.00;95563.25;1034382;28;20482;-67
2021/06/17 02:20:13;;;;;;;6.72;4.45;;;;;;;14.18;100.00;95566.97;1035032;28;20072;-69
2021/06/17 02:20:43;;;;;;;14.07;5.47;;;;;;;14.15;100.00;95563.03;1034864;28;20030;-69
2021/06/17 02:21:14;;;;;;;6.85;4.38;;;;;;;14.15;100.00;95558.56;1030989;28;20061;-68
2021/06/17 02:21:45;;;;;;;9.45;4.68;;;;;;;14.09;100.00;95546.53;1022918;28;20144;-68
2021/06/17 02:22:16;;;;;;;9.85;4.97;;;;;;;14.17;100.00;95560.13;1023004;29;20035;-69
2021/06/17 02:22:47;;;;;;;15.02;5.60;;;;;;;14.13;100.00;95559.91;1020435;29;20299;-68
2021/06/17 02:23:17;;;;;;;6.07;4.53;;;;;;;14.11;100.00;95562.06;1025987;28;20073;-68
2021/06/17 02:23:50;;;;;;;6.82;4.85;;;;;;;14.10;100.00;95557.84;1023201;29;20078;-69
2021/06/17 02:24:21;;;;;;;10.30;4.78;;;;;;;14.03;100.00;95549.53;1023564;28;20448;-68
2021/06/17 02:24:52;;;;;;;9.20;4.55;;;;;;;14.11;100.00;95562.06;1026787;28;20301;-69
2021/06/17 02:25:22;;;;;;;14.70;5.57;;;;;;;14.10;100.00;95563.13;1031002;28;20407;-68
2021/06/17 02:25:53;;;;;;;6.75;4.70;;;;;;;14.06;100.00;95559.50;1027117;28;20056;-69
2021/06/17 02:26:26;;;;;;;11.48;5.93;;;;;;;14.06;100.00;95560.28;1022358;29;20541;-68
2021/06/17 02:27:00;;;;;;;16.70;5.60;;;;;;;13.99;100.00;95545.91;1022474;28;20027;-69
2021/06/17 02:27:33;;;;;;;8.90;5.40;;;;;;;14.08;100.00;95567.91;1034851;28;20120;-68
2021/06/17 02:28:14;;;;;;;13.73;5.40;;;;;;;14.06;100.00;95564.78;1027861;28;20042;-69
2021/06/17 02:28:46;;;;;;;11.50;5.03;;;;;;;14.04;100.00;95561.63;1026842;28;20325;-68
2021/06/17 02:29:17;;;;;;;13.98;5.10;;;;;;;14.05;100.00;95565.84;1030913;28;20066;-70
2021/06/17 02:29:48;;;;;;;8.02;4.70;;;;;;;14.07;100.00;95566.34;1026050;28;20136;-69
2021/06/17 02:30:18;;;;;;;13.57;5.35;;;;;;;14.05;100.00;95557.94;1022171;28;20599;-69
2021/06/17 02:30:49;;;;;;;10.93;5.03;;;;;;;14.04;100.00;95564.28;1030952;28;20085;-68
2021/06/17 02:31:22;;;;;;;8.98;5.10;;;;;;;14.04;100.00;95564.28;1022607;28;20183;-69